Aviation Digital Data Service (ADDS)

Output produced by METARs form (1317 UTC 17 December 2018)
found at http://aviationweather.gov/metar/data/
 
KAEX 171253Z 00000KT 5SM BR CLR 08/07 A3025 RMK AO2 SLP250 T00780072
KAEX 171120Z 1712/1812 00000KT P6SM SCT250 
     TEMPO 1712/1714 3SM BR 
     FM171400 19003KT P6SM BKN250 
     FM180000 00000KT P6SM BKN250